createdAt,value
2023-07-20T00:02:24.048Z,20.42
2023-07-20T00:04:51.818Z,20.42
2023-07-20T00:07:19.608Z,20.58
2023-07-20T00:09:47.356Z,20.73
2023-07-20T00:12:15.819Z,20.94
2023-07-20T00:14:43.775Z,21.11
2023-07-20T00:17:11.542Z,21.02
2023-07-20T00:19:40.744Z,21.07
2023-07-20T00:22:08.545Z,20.71
2023-07-20T00:24:36.300Z,20.73
2023-07-20T00:27:04.128Z,20.70
2023-07-20T00:29:31.982Z,20.68
2023-07-20T00:32:00.562Z,20.66
2023-07-20T00:34:28.325Z,20.62
2023-07-20T00:36:57.455Z,20.53
2023-07-20T00:39:25.214Z,20.62
2023-07-20T00:41:52.968Z,20.51
2023-07-20T00:44:20.743Z,20.28
2023-07-20T00:46:49.059Z,20.54
2023-07-20T00:49:17.420Z,20.27
2023-07-20T00:51:45.881Z,20.26
2023-07-20T00:54:15.032Z,20.34
2023-07-20T00:56:42.892Z,20.31
2023-07-20T00:59:11.747Z,20.01
2023-07-20T01:01:39.842Z,20.11
2023-07-20T01:04:07.860Z,19.91
2023-07-20T01:06:44.088Z,19.68
2023-07-20T01:09:19.066Z,19.75
2023-07-20T01:11:56.281Z,19.87
2023-07-20T01:14:26.337Z,20.04
2023-07-20T01:16:54.418Z,20.22
2023-07-20T01:19:22.499Z,20.27
2023-07-20T01:21:59.196Z,20.21
2023-07-20T01:24:58.775Z,20.40
2023-07-20T01:28:06.018Z,20.30
2023-07-20T01:30:57.753Z,20.22
2023-07-20T01:33:28.298Z,20.20
2023-07-20T01:35:59.665Z,20.26
2023-07-20T01:38:27.957Z,20.31
2023-07-20T01:40:56.269Z,20.15
2023-07-20T01:43:24.097Z,20.35
2023-07-20T01:45:51.842Z,20.34
2023-07-20T01:48:19.733Z,20.32
2023-07-20T01:50:49.121Z,20.17
2023-07-20T01:53:16.996Z,20.18
2023-07-20T01:55:44.800Z,20.27
2023-07-20T01:58:12.534Z,20.15
2023-07-20T02:00:40.601Z,19.96
2023-07-20T02:03:08.511Z,20.02
2023-07-20T02:05:36.324Z,20.14
2023-07-20T02:08:05.826Z,19.56
2023-07-20T02:10:33.582Z,19.31
2023-07-20T02:13:01.312Z,19.23
2023-07-20T02:15:29.725Z,18.99
2023-07-20T02:17:57.539Z,18.86
2023-07-20T02:20:25.312Z,18.88
2023-07-20T02:22:53.135Z,19.21
2023-07-20T02:25:22.709Z,19.20
2023-07-20T02:27:50.512Z,19.07
2023-07-20T02:30:18.787Z,19.09
2023-07-20T02:32:49.643Z,19.16
2023-07-20T02:35:17.963Z,19.27
2023-07-20T02:37:46.061Z,18.92
2023-07-20T02:40:14.008Z,19.01
2023-07-20T02:42:43.119Z,19.16
2023-07-20T02:45:11.416Z,18.91
2023-07-20T02:47:39.233Z,18.97
2023-07-20T02:50:10.094Z,18.76
2023-07-20T02:52:37.898Z,18.79
2023-07-20T02:55:06.311Z,18.72
2023-07-20T02:57:34.091Z,19.01
2023-07-20T03:00:05.138Z,19.07
2023-07-20T03:02:32.972Z,19.05
2023-07-20T03:05:01.748Z,19.24
2023-07-20T03:07:30.446Z,19.43
2023-07-20T03:09:58.258Z,19.31
2023-07-20T03:12:26.494Z,19.34
2023-07-20T03:14:55.198Z,18.92
2023-07-20T03:17:24.372Z,18.76
2023-07-20T03:19:52.144Z,18.52
2023-07-20T03:22:19.940Z,18.50
2023-07-20T03:24:47.833Z,18.46
2023-07-20T03:27:15.857Z,18.52
2023-07-20T03:29:43.632Z,18.69
2023-07-20T03:32:11.905Z,18.64
2023-07-20T03:34:41.033Z,18.54
2023-07-20T03:37:08.829Z,18.54
2023-07-20T03:39:36.544Z,18.70
2023-07-20T03:42:04.468Z,18.70
2023-07-20T03:44:32.866Z,18.71
2023-07-20T03:47:00.734Z,18.92
2023-07-20T03:49:28.539Z,19.01
2023-07-20T03:51:57.650Z,19.24
2023-07-20T03:54:25.501Z,19.26
2023-07-20T03:56:53.260Z,19.08
2023-07-20T03:59:21.081Z,19.10
2023-07-20T04:01:48.873Z,19.18
2023-07-20T04:04:18.527Z,19.06
2023-07-20T04:06:46.336Z,19.05
2023-07-20T04:09:15.451Z,19.22
2023-07-20T04:11:43.275Z,19.18
2023-07-20T04:14:11.033Z,19.20
2023-07-20T04:16:38.957Z,19.29
2023-07-20T04:19:06.891Z,19.18
2023-07-20T04:21:34.633Z,19.14
2023-07-20T04:24:02.371Z,19.36
2023-07-20T04:26:31.505Z,19.42
2023-07-20T04:29:00.382Z,19.54
2023-07-20T04:31:28.139Z,19.51
2023-07-20T04:33:55.881Z,19.57
2023-07-20T04:36:23.907Z,19.69
2023-07-20T04:38:51.925Z,19.52
2023-07-20T04:41:19.686Z,19.39
2023-07-20T04:43:49.664Z,19.41
2023-07-20T04:46:18.758Z,19.28
2023-07-20T04:48:46.696Z,19.21
2023-07-20T04:51:14.435Z,19.27
2023-07-20T04:53:42.351Z,19.40
2023-07-20T04:56:11.759Z,19.40
2023-07-20T04:58:39.543Z,19.37
2023-07-20T05:01:08.716Z,19.49
2023-07-20T05:03:36.520Z,19.64
2023-07-20T05:06:04.562Z,19.82
2023-07-20T05:08:32.285Z,20.02
2023-07-20T05:11:01.465Z,20.13
2023-07-20T05:13:29.284Z,20.16
2023-07-20T05:15:57.111Z,20.19
2023-07-20T05:18:26.460Z,20.03
2023-07-20T05:20:56.092Z,20.06
2023-07-20T05:23:23.988Z,20.07
2023-07-20T05:25:56.427Z,20.02
2023-07-20T05:28:24.333Z,19.92
2023-07-20T05:30:53.301Z,20.11
2023-07-20T05:33:21.415Z,19.94
2023-07-20T05:35:50.833Z,20.15
2023-07-20T05:38:18.697Z,19.87
2023-07-20T05:40:48.071Z,19.44
2023-07-20T05:43:16.188Z,19.84
2023-07-20T05:45:44.329Z,19.99
2023-07-20T05:48:14.107Z,20.08
2023-07-20T05:50:44.567Z,19.90
2023-07-20T05:53:13.948Z,20.12
2023-07-20T05:55:41.868Z,20.30
2023-07-20T05:58:09.798Z,20.38
2023-07-20T06:00:37.694Z,20.66
2023-07-20T06:03:05.530Z,20.20
2023-07-20T06:05:33.422Z,20.64
2023-07-20T06:08:01.612Z,20.90
2023-07-20T06:10:30.951Z,21.03
2023-07-20T06:12:58.757Z,21.01
2023-07-20T06:15:27.866Z,21.34
2023-07-20T06:17:56.817Z,21.33
2023-07-20T06:20:24.704Z,21.55
2023-07-20T06:22:52.822Z,21.53
2023-07-20T06:25:21.805Z,21.42
2023-07-20T06:27:51.777Z,21.35
2023-07-20T06:30:19.698Z,21.38
2023-07-20T06:32:47.764Z,21.62
2023-07-20T06:35:16.405Z,21.55
2023-07-20T06:37:44.220Z,21.34
2023-07-20T06:45:15.901Z,21.86
2023-07-20T06:47:43.768Z,22.27
2023-07-20T06:50:17.270Z,22.33
2023-07-20T06:52:47.553Z,22.35
2023-07-20T06:55:15.946Z,22.65
2023-07-20T06:57:46.795Z,22.85
2023-07-20T07:00:18.661Z,22.16
2023-07-20T07:02:48.781Z,22.28
2023-07-20T07:05:20.919Z,22.64
2023-07-20T07:07:50.123Z,22.80
2023-07-20T07:10:18.067Z,22.47
2023-07-20T07:12:45.860Z,22.59
2023-07-20T07:15:13.628Z,22.44
2023-07-20T07:17:44.625Z,22.55
2023-07-20T07:20:20.981Z,23.01
2023-07-20T07:25:23.856Z,22.91
2023-07-20T07:27:53.222Z,22.38
2023-07-20T07:30:21.299Z,22.40
2023-07-20T07:32:50.726Z,22.19
2023-07-20T07:35:18.543Z,22.06
2023-07-20T07:38:03.202Z,22.19
2023-07-20T07:40:34.841Z,22.17
2023-07-20T07:43:02.700Z,22.11
2023-07-20T07:45:30.689Z,22.57
2023-07-20T07:47:59.862Z,22.60
2023-07-20T07:50:28.374Z,22.73
2023-07-20T07:52:56.523Z,22.87
2023-07-20T07:55:24.267Z,22.76
2023-07-20T07:57:52.110Z,22.78
2023-07-20T08:00:21.006Z,22.64
2023-07-20T08:02:49.215Z,23.18
2023-07-20T08:05:18.973Z,23.51
2023-07-20T08:07:47.205Z,23.85
2023-07-20T08:10:14.955Z,23.52
2023-07-20T08:12:42.750Z,23.31
2023-07-20T08:15:13.465Z,23.86
2023-07-20T08:17:41.373Z,24.38
2023-07-20T08:20:13.059Z,23.73
2023-07-20T08:22:42.387Z,23.23
2023-07-20T08:25:11.172Z,23.55
2023-07-20T08:27:39.179Z,23.84
2023-07-20T08:30:09.028Z,24.27
2023-07-20T08:32:36.830Z,24.24
2023-07-20T08:35:05.043Z,24.29
2023-07-20T08:37:32.929Z,24.18
2023-07-20T08:40:02.321Z,24.12
2023-07-20T08:42:30.198Z,24.23
2023-07-20T08:44:59.517Z,24.04
2023-07-20T08:47:28.466Z,24.30
2023-07-20T08:49:57.848Z,24.07
2023-07-20T08:52:25.695Z,24.61
2023-07-20T08:54:55.019Z,24.82
2023-07-20T08:57:24.816Z,24.50
2023-07-20T08:59:54.691Z,24.41
2023-07-20T09:02:28.561Z,24.37
2023-07-20T09:04:56.418Z,23.78
2023-07-20T09:07:25.257Z,24.03
2023-07-20T09:09:53.321Z,24.27
2023-07-20T09:12:21.549Z,24.38
2023-07-20T09:14:51.730Z,24.06
2023-07-20T09:17:20.561Z,23.84
2023-07-20T09:19:49.366Z,23.87
2023-07-20T09:22:18.489Z,24.33
2023-07-20T09:24:46.562Z,24.35
2023-07-20T09:27:14.611Z,24.49
2023-07-20T09:29:50.818Z,24.73
2023-07-20T09:34:53.816Z,25.38
2023-07-20T09:37:25.728Z,25.37
2023-07-20T09:44:58.883Z,25.09
2023-07-20T09:47:28.718Z,25.19
2023-07-20T09:55:04.789Z,25.26
2023-07-20T09:57:34.762Z,25.52
2023-07-20T10:02:44.661Z,25.78
2023-07-20T10:05:14.202Z,25.48
2023-07-20T10:07:46.420Z,25.71
2023-07-20T10:10:16.654Z,25.55
2023-07-20T10:12:45.222Z,25.15
2023-07-20T10:15:21.644Z,25.35
2023-07-20T10:17:59.741Z,25.70
2023-07-20T10:20:30.368Z,25.35
2023-07-20T10:22:59.256Z,26.14
2023-07-20T10:25:27.000Z,26.38
2023-07-20T10:27:55.657Z,26.21
2023-07-20T10:30:25.164Z,25.48
2023-07-20T10:32:54.559Z,25.80
2023-07-20T10:35:22.460Z,26.16
2023-07-20T10:38:02.925Z,25.71
2023-07-20T10:40:35.297Z,25.40
2023-07-20T10:43:05.509Z,25.65
2023-07-20T10:45:45.215Z,25.66
2023-07-20T10:48:17.387Z,25.95
2023-07-20T10:50:45.770Z,26.07
2023-07-20T10:53:15.378Z,26.57
2023-07-20T10:55:44.250Z,26.58
2023-07-20T10:58:13.382Z,26.75
2023-07-20T11:01:00.518Z,27.05
2023-07-20T11:03:35.755Z,27.12
2023-07-20T11:06:39.646Z,26.80
2023-07-20T11:09:12.902Z,27.27
2023-07-20T11:11:41.449Z,27.49
2023-07-20T11:14:10.791Z,26.88
2023-07-20T11:16:45.469Z,27.11
2023-07-20T11:20:22.962Z,26.60
2023-07-20T11:22:08.975Z,26.38
2023-07-20T11:24:37.022Z,26.93
2023-07-20T11:27:05.305Z,26.93
2023-07-20T11:29:34.456Z,27.65
2023-07-20T11:32:05.987Z,27.26
2023-07-20T11:34:35.862Z,27.36
2023-07-20T11:39:34.509Z,27.48
2023-07-20T11:42:02.310Z,27.14
2023-07-20T11:44:31.690Z,27.26
2023-07-20T11:47:05.902Z,27.65
2023-07-20T11:49:37.862Z,27.60
2023-07-20T11:52:06.521Z,27.77
2023-07-20T11:54:35.854Z,28.35
2023-07-20T11:57:03.795Z,28.51
2023-07-20T11:59:32.316Z,28.66
2023-07-20T12:02:03.572Z,27.83
2023-07-20T12:04:33.649Z,28.61
2023-07-20T12:07:01.760Z,28.54
2023-07-20T12:09:41.690Z,28.56
2023-07-20T12:12:14.282Z,28.31
2023-07-20T12:14:42.204Z,28.56
2023-07-20T12:17:10.981Z,27.73
2023-07-20T12:19:41.648Z,27.35
2023-07-20T12:22:09.976Z,27.15
2023-07-20T12:24:37.854Z,27.27
2023-07-20T12:27:06.477Z,27.64
2023-07-20T12:29:37.507Z,28.15
2023-07-20T12:32:07.230Z,28.56
2023-07-20T12:34:35.040Z,28.39
2023-07-20T12:37:06.883Z,28.27
2023-07-20T12:39:35.044Z,28.13
2023-07-20T12:42:02.849Z,28.69
2023-07-20T12:44:30.555Z,28.87
2023-07-20T12:46:58.618Z,28.70
2023-07-20T12:49:26.388Z,28.29
2023-07-20T12:51:54.214Z,28.51
2023-07-20T12:54:23.411Z,28.67
2023-07-20T12:59:22.386Z,28.26
2023-07-20T13:01:50.139Z,28.38
2023-07-20T13:04:17.959Z,28.36
2023-07-20T13:06:46.937Z,28.57
2023-07-20T13:09:14.680Z,28.58
2023-07-20T13:11:44.195Z,28.64
2023-07-20T13:14:12.900Z,28.52
2023-07-20T13:16:40.843Z,28.60
2023-07-20T13:19:08.620Z,28.21
2023-07-20T13:21:37.828Z,28.58
2023-07-20T13:24:06.755Z,28.98
2023-07-20T13:26:36.645Z,29.26
2023-07-20T13:29:06.043Z,29.23
2023-07-20T13:31:35.510Z,28.79
2023-07-20T13:34:04.283Z,28.28
2023-07-20T13:36:32.217Z,27.58
2023-07-20T13:39:00.756Z,27.28
2023-07-20T13:41:30.156Z,27.59
2023-07-20T13:43:58.725Z,28.19
2023-07-20T13:48:59.026Z,28.20
2023-07-20T13:51:28.149Z,28.44
2023-07-20T13:53:56.316Z,28.23
2023-07-20T13:56:24.073Z,28.74
2023-07-20T13:58:51.848Z,28.27
2023-07-20T14:03:54.106Z,28.68
2023-07-20T14:06:24.837Z,28.46
2023-07-20T14:08:54.398Z,28.23
2023-07-20T14:13:54.071Z,27.98
2023-07-20T14:16:21.922Z,28.09
2023-07-20T14:18:50.233Z,28.19
2023-07-20T14:21:22.226Z,28.76
2023-07-20T14:23:53.968Z,28.72
2023-07-20T14:26:22.974Z,28.37
2023-07-20T14:28:51.035Z,27.63
2023-07-20T14:31:20.019Z,27.39
2023-07-20T14:33:47.940Z,27.90
2023-07-20T14:36:15.777Z,27.67
2023-07-20T14:38:44.858Z,28.61
2023-07-20T14:41:13.286Z,29.50
2023-07-20T14:43:41.136Z,28.86
2023-07-20T14:46:08.975Z,27.19
2023-07-20T14:48:36.756Z,27.04
2023-07-20T14:51:05.688Z,25.92
2023-07-20T14:53:37.029Z,26.29
2023-07-20T14:56:06.606Z,26.55
2023-07-20T14:58:35.573Z,26.77
2023-07-20T15:01:04.141Z,26.57
2023-07-20T15:03:32.980Z,26.64
2023-07-20T15:06:00.956Z,27.49
2023-07-20T15:08:29.189Z,27.54
2023-07-20T15:10:57.373Z,27.18
2023-07-20T15:13:26.885Z,27.16
2023-07-20T15:15:54.742Z,27.43
2023-07-20T15:18:33.730Z,27.35
2023-07-20T15:21:09.503Z,27.58
2023-07-20T15:23:37.232Z,27.46
2023-07-20T15:26:04.988Z,26.87
2023-07-20T15:28:34.157Z,27.22
2023-07-20T15:31:02.894Z,27.70
2023-07-20T15:33:30.835Z,26.96
2023-07-20T15:35:58.627Z,27.02
2023-07-20T15:38:27.118Z,25.89
2023-07-20T15:40:55.210Z,25.46
2023-07-20T15:43:23.437Z,25.87
2023-07-20T15:45:52.985Z,25.32
2023-07-20T15:48:21.069Z,25.36
2023-07-20T15:50:48.973Z,25.85
2023-07-20T15:53:16.824Z,26.09
2023-07-20T15:55:44.577Z,25.98
2023-07-20T15:58:12.332Z,25.01
2023-07-20T16:00:40.089Z,25.37
2023-07-20T16:03:12.051Z,25.78
2023-07-20T16:05:39.969Z,25.85
2023-07-20T16:08:09.087Z,26.01
2023-07-20T16:10:37.072Z,25.35
2023-07-20T16:13:04.947Z,25.58
2023-07-20T16:18:03.411Z,24.95
2023-07-20T16:20:32.526Z,25.17
2023-07-20T16:23:00.325Z,25.33
2023-07-20T16:25:28.046Z,25.42
2023-07-20T16:27:55.995Z,25.61
2023-07-20T16:30:23.746Z,25.41
2023-07-20T16:32:52.149Z,25.21
2023-07-20T16:35:23.190Z,25.13
2023-07-20T16:38:14.047Z,25.13
2023-07-20T16:43:12.811Z,24.60
2023-07-20T16:45:40.672Z,25.22
2023-07-20T16:48:10.409Z,24.86
2023-07-20T16:50:38.281Z,24.92
2023-07-20T16:53:06.025Z,25.25
2023-07-20T16:55:35.180Z,24.62
2023-07-20T16:58:03.220Z,24.73
2023-07-20T17:00:31.085Z,24.39
2023-07-20T17:02:59.205Z,24.53
2023-07-20T17:05:27.112Z,24.56
2023-07-20T17:07:56.536Z,24.57
2023-07-20T17:10:25.109Z,24.90
2023-07-20T17:12:54.212Z,24.53
2023-07-20T17:15:22.785Z,24.65
2023-07-20T17:17:52.816Z,24.63
2023-07-20T17:22:52.577Z,24.68
2023-07-20T17:30:23.602Z,24.01
2023-07-20T17:32:52.224Z,24.16
2023-07-20T17:35:21.844Z,24.55
2023-07-20T17:45:23.876Z,23.89
2023-07-20T17:47:51.715Z,23.70
2023-07-20T17:50:19.496Z,23.56
2023-07-20T17:52:47.274Z,23.30
2023-07-20T17:55:15.119Z,23.85
2023-07-20T17:57:42.857Z,24.04
2023-07-20T18:02:45.243Z,24.22
2023-07-20T18:05:14.233Z,24.16
2023-07-20T18:07:42.257Z,24.18
2023-07-20T18:10:10.937Z,23.85
2023-07-20T18:12:38.848Z,23.89
2023-07-20T18:15:08.069Z,23.99
2023-07-20T18:17:37.305Z,23.51
2023-07-20T18:20:07.720Z,23.43
2023-07-20T18:22:35.715Z,23.82
2023-07-20T18:25:05.908Z,23.75
2023-07-20T18:27:34.152Z,23.42
2023-07-20T18:30:01.893Z,23.75
2023-07-20T18:32:29.663Z,23.62
2023-07-20T18:34:57.421Z,23.71
2023-07-20T18:37:26.646Z,23.35
2023-07-20T18:39:54.742Z,23.44
2023-07-20T18:42:22.739Z,23.06
2023-07-20T18:44:51.931Z,22.13
2023-07-20T18:47:19.717Z,21.86
2023-07-20T18:49:47.562Z,22.55
2023-07-20T18:52:15.299Z,22.61
2023-07-20T18:54:44.546Z,22.59
2023-07-20T18:57:12.348Z,22.24
2023-07-20T18:59:42.157Z,22.17
2023-07-20T19:02:09.973Z,22.52
2023-07-20T19:04:38.397Z,22.31
2023-07-20T19:07:07.254Z,22.04
2023-07-20T19:09:35.063Z,22.24
2023-07-20T19:12:04.479Z,21.88
2023-07-20T19:14:32.273Z,22.07
2023-07-20T19:17:00.163Z,21.91
2023-07-20T19:19:29.960Z,21.93
2023-07-20T19:21:57.707Z,21.92
2023-07-20T19:24:25.817Z,21.81
2023-07-20T19:26:53.873Z,22.01
2023-07-20T19:29:23.008Z,21.56
2023-07-20T19:31:50.855Z,21.53
2023-07-20T19:34:18.691Z,21.57
2023-07-20T19:36:46.441Z,21.37
2023-07-20T19:39:14.210Z,21.55
2023-07-20T19:41:41.981Z,21.64
2023-07-20T19:44:10.565Z,21.55
2023-07-20T19:46:40.457Z,21.39
2023-07-20T19:49:08.416Z,21.27
2023-07-20T19:51:37.870Z,21.64
2023-07-20T19:56:37.694Z,21.71
2023-07-20T19:59:06.065Z,21.32
2023-07-20T20:06:36.863Z,21.67
2023-07-20T20:09:05.652Z,21.37
2023-07-20T20:11:33.440Z,21.72
2023-07-20T20:14:01.400Z,21.41
2023-07-20T20:16:29.430Z,21.36
2023-07-20T20:18:57.274Z,21.59
2023-07-20T20:21:26.407Z,21.47
2023-07-20T20:23:54.135Z,21.33
2023-07-20T20:26:21.948Z,21.19
2023-07-20T20:28:49.717Z,20.90
2023-07-20T20:31:17.548Z,21.19
2023-07-20T20:33:45.876Z,20.82
2023-07-20T20:36:14.006Z,21.14
2023-07-20T20:38:43.110Z,20.83
2023-07-20T20:41:10.816Z,21.32
2023-07-20T20:43:38.569Z,21.60
2023-07-20T20:46:10.533Z,21.22
2023-07-20T20:48:38.744Z,21.42
2023-07-20T20:51:06.797Z,21.33
2023-07-20T20:53:34.595Z,21.28
2023-07-20T20:56:04.313Z,21.41
2023-07-20T20:58:32.107Z,21.57
2023-07-20T21:01:01.809Z,21.86
2023-07-20T21:03:30.324Z,21.86
2023-07-20T21:05:58.678Z,21.96
2023-07-20T21:08:28.455Z,22.04
2023-07-20T21:10:59.749Z,21.97
2023-07-20T21:13:28.892Z,21.85
2023-07-20T21:15:57.412Z,21.75
2023-07-20T21:18:25.312Z,21.71
2023-07-20T21:20:53.156Z,21.65
2023-07-20T21:23:21.104Z,21.18
2023-07-20T21:25:49.596Z,20.89
2023-07-20T21:28:18.510Z,21.17
2023-07-20T21:31:01.655Z,21.16
2023-07-20T21:33:29.463Z,21.31
2023-07-20T21:35:57.263Z,21.24
2023-07-20T21:38:25.159Z,20.91
2023-07-20T21:40:52.903Z,20.88
2023-07-20T21:43:20.636Z,20.84
2023-07-20T21:45:49.790Z,20.88
2023-07-20T21:48:17.688Z,20.78
2023-07-20T21:50:49.308Z,20.66
2023-07-20T21:53:18.252Z,20.73
2023-07-20T21:55:48.954Z,20.58
2023-07-20T21:58:18.921Z,20.75
2023-07-20T22:00:51.686Z,20.86
2023-07-20T22:03:22.319Z,20.86
2023-07-20T22:05:53.083Z,20.87
2023-07-20T22:08:21.270Z,20.57
2023-07-20T22:10:52.956Z,20.73
2023-07-20T22:13:21.632Z,20.76
2023-07-20T22:15:51.648Z,21.03
2023-07-20T22:18:35.451Z,20.82
2023-07-20T22:21:05.751Z,20.66
2023-07-20T22:23:35.251Z,20.79
2023-07-20T22:26:03.122Z,20.81
2023-07-20T22:28:30.943Z,20.90
2023-07-20T22:30:59.933Z,20.56
2023-07-20T22:33:29.369Z,20.77
2023-07-20T22:35:57.173Z,20.66
2023-07-20T22:38:25.255Z,20.67
2023-07-20T22:40:53.184Z,20.63
2023-07-20T22:43:25.939Z,20.71
2023-07-20T22:45:55.423Z,20.70
2023-07-20T22:48:24.847Z,20.76
2023-07-20T22:50:54.339Z,20.66
2023-07-20T22:53:23.101Z,20.74
2023-07-20T22:55:51.127Z,20.64
2023-07-20T22:58:19.439Z,20.62
2023-07-20T23:00:47.550Z,20.75
2023-07-20T23:03:15.472Z,20.47
2023-07-20T23:05:43.533Z,20.30
2023-07-20T23:08:13.123Z,20.61
2023-07-20T23:10:41.011Z,20.68
2023-07-20T23:13:08.836Z,20.51
2023-07-20T23:15:36.729Z,20.65
2023-07-20T23:18:04.811Z,20.34
2023-07-20T23:20:32.685Z,20.57
2023-07-20T23:23:00.544Z,20.84
2023-07-20T23:25:29.728Z,20.52
2023-07-20T23:27:57.699Z,20.51
2023-07-20T23:30:25.522Z,20.33
2023-07-20T23:32:54.003Z,20.67
2023-07-20T23:35:22.497Z,20.52
2023-07-20T23:37:51.535Z,20.47
2023-07-20T23:40:19.855Z,20.48
2023-07-20T23:42:49.265Z,20.57
2023-07-20T23:45:17.116Z,20.44
2023-07-20T23:47:45.062Z,20.35
2023-07-20T23:50:14.189Z,20.28
2023-07-20T23:52:42.064Z,20.14
2023-07-20T23:55:10.763Z,20.03
2023-07-20T23:57:39.255Z,20.31
